ORB748J LPLA-CYHZ
Flight info
| Callsign | ORB748J |
|---|---|
| Flight time | N/A |
| Altitude | 43000 |
| Route | 40N030W 43N040W 44N050W DCT BOBTU/N0479F430 DCT NANSO DCT AGMIR LIRLA5 |
| Aircraft | C700/M-SBDGHM1RWXY/LB2 |
Departure
| Time | N/A |
|---|---|
| Airport | Lajes Airport (LPLA) |
Arrival
| Time | 2026-04-28 13:05 |
|---|---|
| Airport | Halifax / Stanfield International Airport (CYHZ) |
| Time | Latitude | Longitude | Altitude | Speed | Heading |
|---|---|---|---|---|---|
| 2026-04-28 12:39 | 45.18994 | -61.57251 | 31842 ft | 333 kts | 273° |
| 2026-04-28 12:39 | 45.19324 | -61.60501 | 31403 ft | 332 kts | 273° |
| 2026-04-28 12:39 | 45.19648 | -61.63705 | 30975 ft | 332 kts | 273° |
| 2026-04-28 12:39 | 45.19978 | -61.66952 | 30531 ft | 329 kts | 273° |
| 2026-04-28 12:40 | 45.20302 | -61.70148 | 30066 ft | 324 kts | 273° |
| 2026-04-28 12:40 | 45.20618 | -61.73298 | 29648 ft | 327 kts | 273° |
| 2026-04-28 12:40 | 45.20938 | -61.76513 | 29210 ft | 329 kts | 274° |
| 2026-04-28 12:40 | 45.21261 | -61.79724 | 28779 ft | 327 kts | 274° |
| 2026-04-28 12:41 | 45.21579 | -61.82892 | 28350 ft | 326 kts | 274° |
| 2026-04-28 12:41 | 45.21896 | -61.86080 | 27925 ft | 326 kts | 275° |
| 2026-04-28 12:41 | 45.22210 | -61.89252 | 27499 ft | 327 kts | 275° |
| 2026-04-28 12:41 | 45.22495 | -61.92476 | 27066 ft | 328 kts | 271° |
| 2026-04-28 12:42 | 45.22454 | -61.95702 | 26635 ft | 327 kts | 263° |
| 2026-04-28 12:42 | 45.22051 | -61.98869 | 26207 ft | 325 kts | 255° |
| 2026-04-28 12:42 | 45.21367 | -62.01890 | 25786 ft | 326 kts | 251° |
| 2026-04-28 12:42 | 45.20645 | -62.04962 | 25355 ft | 328 kts | 252° |
| 2026-04-28 12:43 | 45.19942 | -62.08031 | 24928 ft | 330 kts | 252° |
| 2026-04-28 12:43 | 45.19223 | -62.11144 | 24493 ft | 331 kts | 252° |
| 2026-04-28 12:43 | 45.18497 | -62.14246 | 24058 ft | 330 kts | 252° |
| 2026-04-28 12:43 | 45.17775 | -62.17334 | 23587 ft | 328 kts | 252° |
| 2026-04-28 12:44 | 45.17066 | -62.20370 | 23148 ft | 325 kts | 252° |
| 2026-04-28 12:44 | 45.16355 | -62.23413 | 22719 ft | 323 kts | 252° |
| 2026-04-28 12:44 | 45.15649 | -62.26431 | 22295 ft | 322 kts | 252° |
| 2026-04-28 12:44 | 45.14938 | -62.29460 | 21866 ft | 322 kts | 252° |
| 2026-04-28 12:45 | 45.14242 | -62.32425 | 21453 ft | 321 kts | 252° |
| 2026-04-28 12:45 | 45.13533 | -62.35439 | 21028 ft | 322 kts | 252° |
| 2026-04-28 12:45 | 45.12824 | -62.38448 | 20604 ft | 321 kts | 252° |
| 2026-04-28 12:45 | 45.12115 | -62.41458 | 20169 ft | 321 kts | 252° |
| 2026-04-28 12:46 | 45.11407 | -62.44458 | 19755 ft | 320 kts | 252° |
| 2026-04-28 12:46 | 45.10708 | -62.47413 | 19336 ft | 319 kts | 252° |
| 2026-04-28 12:46 | 45.09999 | -62.50407 | 18913 ft | 318 kts | 252° |
| 2026-04-28 12:46 | 45.09294 | -62.53380 | 18463 ft | 317 kts | 252° |
| 2026-04-28 12:47 | 45.08603 | -62.56293 | 18044 ft | 314 kts | 252° |
| 2026-04-28 12:47 | 45.07908 | -62.59218 | 17628 ft | 312 kts | 252° |
| 2026-04-28 12:47 | 45.07217 | -62.62115 | 17219 ft | 309 kts | 252° |
| 2026-04-28 12:47 | 45.06529 | -62.65003 | 16804 ft | 308 kts | 252° |
| 2026-04-28 12:48 | 45.05854 | -62.67835 | 16411 ft | 306 kts | 252° |
| 2026-04-28 12:48 | 45.05170 | -62.70698 | 16002 ft | 305 kts | 252° |
| 2026-04-28 12:48 | 45.04495 | -62.73519 | 15600 ft | 304 kts | 251° |
| 2026-04-28 12:48 | 45.03815 | -62.76357 | 15196 ft | 303 kts | 251° |
| 2026-04-28 12:49 | 45.03149 | -62.79136 | 14805 ft | 301 kts | 251° |
| 2026-04-28 12:49 | 45.02475 | -62.81944 | 14403 ft | 300 kts | 251° |
| 2026-04-28 12:49 | 45.01995 | -62.84803 | 13984 ft | 298 kts | 265° |
| 2026-04-28 12:49 | 45.01840 | -62.87725 | 13593 ft | 295 kts | 266° |
| 2026-04-28 12:50 | 45.01665 | -62.90613 | 13196 ft | 294 kts | 265° |
| 2026-04-28 12:50 | 45.01476 | -62.93455 | 12812 ft | 293 kts | 265° |
| 2026-04-28 12:50 | 45.01294 | -62.96321 | 12343 ft | 294 kts | 265° |
| 2026-04-28 12:50 | 45.01120 | -62.99181 | 11860 ft | 284 kts | 265° |
| 2026-04-28 12:51 | 45.00952 | -63.01885 | 11485 ft | 273 kts | 265° |
| 2026-04-28 12:51 | 45.00449 | -63.04456 | 11075 ft | 275 kts | 238° |
| 2026-04-28 12:51 | 44.99182 | -63.06463 | 10705 ft | 274 kts | 220° |
| 2026-04-28 12:51 | 44.97768 | -63.08220 | 10378 ft | 272 kts | 222° |
| 2026-04-28 12:52 | 44.96485 | -63.10127 | 10015 ft | 263 kts | 229° |
| 2026-04-28 12:52 | 44.95351 | -63.12117 | 9696 ft | 255 kts | 230° |
| 2026-04-28 12:52 | 44.94237 | -63.14027 | 9505 ft | 256 kts | 228° |
| 2026-04-28 12:52 | 44.93062 | -63.15931 | 9322 ft | 257 kts | 227° |
| 2026-04-28 12:53 | 44.91881 | -63.17840 | 9130 ft | 258 kts | 227° |
| 2026-04-28 12:53 | 44.90710 | -63.19762 | 8947 ft | 257 kts | 228° |
| 2026-04-28 12:53 | 44.89547 | -63.21674 | 8765 ft | 256 kts | 227° |
| 2026-04-28 12:53 | 44.88774 | -63.22941 | 8643 ft | 256 kts | 227° |
| 2026-04-28 12:54 | 44.87242 | -63.25445 | 8398 ft | 249 kts | 227° |
| 2026-04-28 12:54 | 44.86104 | -63.27304 | 8213 ft | 253 kts | 227° |
| 2026-04-28 12:54 | 44.84951 | -63.29186 | 8021 ft | 253 kts | 227° |
| 2026-04-28 12:54 | 44.84184 | -63.30436 | 7908 ft | 252 kts | 227° |
| 2026-04-28 12:55 | 44.82668 | -63.32911 | 7671 ft | 251 kts | 227° |
| 2026-04-28 12:55 | 44.81525 | -63.34773 | 7493 ft | 250 kts | 227° |
| 2026-04-28 12:55 | 44.80384 | -63.36634 | 7319 ft | 250 kts | 227° |
| 2026-04-28 12:55 | 44.79642 | -63.37846 | 7211 ft | 249 kts | 226° |
| 2026-04-28 12:56 | 44.78132 | -63.40304 | 6977 ft | 248 kts | 226° |
| 2026-04-28 12:56 | 44.76999 | -63.42141 | 6808 ft | 247 kts | 226° |
| 2026-04-28 12:56 | 44.76249 | -63.43359 | 6691 ft | 247 kts | 226° |
| 2026-04-28 12:56 | 44.74770 | -63.45759 | 6464 ft | 246 kts | 226° |
| 2026-04-28 12:57 | 44.74017 | -63.46984 | 6342 ft | 246 kts | 226° |
| 2026-04-28 12:57 | 44.72895 | -63.48809 | 6206 ft | 244 kts | 226° |
| 2026-04-28 12:57 | 44.71942 | -63.50350 | 5985 ft | 240 kts | 226° |
| 2026-04-28 12:57 | 44.71107 | -63.51704 | 5763 ft | 227 kts | 226° |
| 2026-04-28 12:58 | 44.70152 | -63.53274 | 5486 ft | 221 kts | 229° |
| 2026-04-28 12:58 | 44.69667 | -63.54408 | 5297 ft | 224 kts | 244° |
| 2026-04-28 12:58 | 44.69292 | -63.56179 | 5055 ft | 229 kts | 259° |
| 2026-04-28 12:58 | 44.69300 | -63.58185 | 4787 ft | 227 kts | 279° |
| 2026-04-28 12:59 | 44.69750 | -63.60126 | 4552 ft | 220 kts | 297° |
| 2026-04-28 12:59 | 44.70459 | -63.61630 | 4309 ft | 223 kts | 310° |
| 2026-04-28 12:59 | 44.71630 | -63.62981 | 4087 ft | 207 kts | 334° |
| 2026-04-28 12:59 | 44.72855 | -63.63657 | 4074 ft | 180 kts | 351° |
| 2026-04-28 13:00 | 44.74085 | -63.63825 | 3930 ft | 174 kts | 7° |
| 2026-04-28 13:00 | 44.75126 | -63.63596 | 3748 ft | 155 kts | 20° |
| 2026-04-28 13:00 | 44.76149 | -63.62999 | 3516 ft | 149 kts | 34° |
| 2026-04-28 13:00 | 44.76945 | -63.62232 | 3271 ft | 135 kts | 42° |
| 2026-04-28 13:01 | 44.77688 | -63.61483 | 3054 ft | 134 kts | 42° |
| 2026-04-28 13:01 | 44.78461 | -63.60717 | 2776 ft | 136 kts | 41° |
| 2026-04-28 13:01 | 44.79230 | -63.59956 | 2407 ft | 133 kts | 41° |
| 2026-04-28 13:01 | 44.79980 | -63.59223 | 2132 ft | 127 kts | 42° |
| 2026-04-28 13:02 | 44.80704 | -63.58508 | 1947 ft | 131 kts | 41° |
| 2026-04-28 13:02 | 44.81456 | -63.57765 | 1767 ft | 131 kts | 41° |
| 2026-04-28 13:02 | 44.82186 | -63.57046 | 1578 ft | 129 kts | 41° |
| 2026-04-28 13:02 | 44.82928 | -63.56314 | 1392 ft | 130 kts | 40° |
| 2026-04-28 13:03 | 44.83658 | -63.55597 | 1195 ft | 124 kts | 40° |
| 2026-04-28 13:03 | 44.84343 | -63.54925 | 1021 ft | 120 kts | 41° |
| 2026-04-28 13:03 | 44.85011 | -63.54268 | 849 ft | 114 kts | 40° |
| 2026-04-28 13:03 | 44.85642 | -63.53628 | 752 ft | 113 kts | 43° |
| 2026-04-28 13:04 | 44.86301 | -63.52991 | 596 ft | 116 kts | 40° |
| 2026-04-28 13:04 | 44.86950 | -63.52354 | 469 ft | 104 kts | 41° |
| 2026-04-28 13:04 | 44.87477 | -63.51828 | 449 ft | 79 kts | 38° |
| 2026-04-28 13:04 | 44.87864 | -63.51447 | 451 ft | 62 kts | 35° |
| 2026-04-28 13:05 | 44.88189 | -63.51126 | 449 ft | 53 kts | 34° |
| 2026-04-28 13:05 | 44.88325 | -63.51041 | 449 ft | 12 kts | 327° |
| 2026-04-28 13:05 | 44.88354 | -63.51087 | 449 ft | 0 kts | 307° |
| 2026-04-28 13:07 | 44.88360 | -63.51100 | 449 ft | 5 kts | 305° |
| 2026-04-28 13:07 | 44.88393 | -63.51168 | 449 ft | 10 kts | 304° |
| 2026-04-28 13:07 | 44.88383 | -63.51254 | 449 ft | 11 kts | 219° |
| 2026-04-28 13:07 | 44.88321 | -63.51321 | 449 ft | 11 kts | 217° |
| 2026-04-28 13:08 | 44.88303 | -63.51412 | 449 ft | 7 kts | 287° |
| 2026-04-28 13:08 | 44.88334 | -63.51453 | 449 ft | 6 kts | 315° |
| 2026-04-28 13:08 | 44.88346 | -63.51485 | 449 ft | 1 kts | 291° |
| 2026-04-28 13:08 | 44.88350 | -63.51496 | 449 ft | 1 kts | 298° |
| 2026-04-28 13:09 | 44.88350 | -63.51497 | 449 ft | 0 kts | 298° |